sensor_id;sensor_type;location;lat;lon;timestamp;temperature;humidity
30097;DHT22;16915;51.466;3.610;2023-09-19T00:02:23;16.00;99.90
30097;DHT22;16915;51.466;3.610;2023-09-19T00:04:49;15.90;99.90
30097;DHT22;16915;51.466;3.610;2023-09-19T00:07:15;15.90;99.90
30097;DHT22;16915;51.466;3.610;2023-09-19T00:09:41;16.00;99.90
30097;DHT22;16915;51.466;3.610;2023-09-19T00:12:09;15.90;99.90
30097;DHT22;16915;51.466;3.610;2023-09-19T00:14:35;15.90;99.90
30097;DHT22;16915;51.466;3.610;2023-09-19T00:17:04;15.90;99.90
30097;DHT22;16915;51.466;3.610;2023-09-19T00:19:31;15.90;99.90
30097;DHT22;16915;51.466;3.610;2023-09-19T00:21:58;15.90;99.90
30097;DHT22;16915;51.466;3.610;2023-09-19T00:24:23;15.90;99.90
30097;DHT22;16915;51.466;3.610;2023-09-19T00:26:49;15.90;99.90
30097;DHT22;16915;51.466;3.610;2023-09-19T00:29:15;15.90;99.90
30097;DHT22;16915;51.466;3.610;2023-09-19T00:31:44;16.00;99.90
30097;DHT22;16915;51.466;3.610;2023-09-19T00:34:10;16.00;99.90
30097;DHT22;16915;51.466;3.610;2023-09-19T00:36:37;16.00;99.90
30097;DHT22;16915;51.466;3.610;2023-09-19T00:39:07;16.00;99.90
30097;DHT22;16915;51.466;3.610;2023-09-19T00:41:34;16.00;99.90
30097;DHT22;16915;51.466;3.610;2023-09-19T00:44:01;16.10;99.90
30097;DHT22;16915;51.466;3.610;2023-09-19T00:46:27;16.10;99.90
30097;DHT22;16915;51.466;3.610;2023-09-19T00:48:53;16.10;99.90
30097;DHT22;16915;51.466;3.610;2023-09-19T00:51:20;16.20;99.90
30097;DHT22;16915;51.466;3.610;2023-09-19T00:53:47;16.20;99.90
30097;DHT22;16915;51.466;3.610;2023-09-19T00:56:14;16.30;99.90
30097;DHT22;16915;51.466;3.610;2023-09-19T00:58:40;16.30;99.90
30097;DHT22;16915;51.466;3.610;2023-09-19T01:01:06;16.30;99.90
30097;DHT22;16915;51.466;3.610;2023-09-19T01:03:36;16.30;99.90
30097;DHT22;16915;51.466;3.610;2023-09-19T01:06:02;16.30;99.90
30097;DHT22;16915;51.466;3.610;2023-09-19T01:08:28;16.40;99.90
30097;DHT22;16915;51.466;3.610;2023-09-19T01:11:13;16.40;99.90
30097;DHT22;16915;51.466;3.610;2023-09-19T01:13:47;16.30;99.90
30097;DHT22;16915;51.466;3.610;2023-09-19T01:16:42;16.20;99.90
30097;DHT22;16915;51.466;3.610;2023-09-19T01:22:09;16.00;99.90
30097;DHT22;16915;51.466;3.610;2023-09-19T01:30:44;15.70;99.90
30097;DHT22;16915;51.466;3.610;2023-09-19T01:33:10;15.70;99.90
30097;DHT22;16915;51.466;3.610;2023-09-19T01:35:40;15.60;99.90
30097;DHT22;16915;51.466;3.610;2023-09-19T01:38:06;15.60;99.90
30097;DHT22;16915;51.466;3.610;2023-09-19T01:40:42;15.50;99.90
30097;DHT22;16915;51.466;3.610;2023-09-19T01:43:25;15.40;99.90
30097;DHT22;16915;51.466;3.610;2023-09-19T01:46:04;15.40;99.90
30097;DHT22;16915;51.466;3.610;2023-09-19T01:48:54;15.20;99.90
30097;DHT22;16915;51.466;3.610;2023-09-19T01:51:53;15.20;99.90
30097;DHT22;16915;51.466;3.610;2023-09-19T01:54:27;15.10;99.90
30097;DHT22;16915;51.466;3.610;2023-09-19T01:57:27;15.00;99.90
30097;DHT22;16915;51.466;3.610;2023-09-19T02:00:03;14.90;99.90
30097;DHT22;16915;51.466;3.610;2023-09-19T02:02:36;14.80;99.90
30097;DHT22;16915;51.466;3.610;2023-09-19T02:05:02;14.80;99.90
30097;DHT22;16915;51.466;3.610;2023-09-19T02:07:29;14.70;99.90
30097;DHT22;16915;51.466;3.610;2023-09-19T02:10:00;14.70;99.90
30097;DHT22;16915;51.466;3.610;2023-09-19T02:12:26;14.70;99.90
30097;DHT22;16915;51.466;3.610;2023-09-19T02:14:52;14.80;99.90
30097;DHT22;16915;51.466;3.610;2023-09-19T02:17:18;14.80;99.90
30097;DHT22;16915;51.466;3.610;2023-09-19T02:19:44;14.80;99.90
30097;DHT22;16915;51.466;3.610;2023-09-19T02:22:10;14.80;99.90
30097;DHT22;16915;51.466;3.610;2023-09-19T02:24:38;14.80;99.90
30097;DHT22;16915;51.466;3.610;2023-09-19T02:27:04;14.80;99.90
30097;DHT22;16915;51.466;3.610;2023-09-19T02:29:31;14.80;99.90
30097;DHT22;16915;51.466;3.610;2023-09-19T02:31:56;14.80;99.90
30097;DHT22;16915;51.466;3.610;2023-09-19T02:34:22;14.80;99.90
30097;DHT22;16915;51.466;3.610;2023-09-19T02:36:48;14.70;99.90
30097;DHT22;16915;51.466;3.610;2023-09-19T02:39:14;14.60;99.90
30097;DHT22;16915;51.466;3.610;2023-09-19T02:41:39;14.60;99.90
30097;DHT22;16915;51.466;3.610;2023-09-19T02:44:07;14.60;99.90
30097;DHT22;16915;51.466;3.610;2023-09-19T02:46:35;14.60;99.90
30097;DHT22;16915;51.466;3.610;2023-09-19T02:49:02;14.50;99.90
30097;DHT22;16915;51.466;3.610;2023-09-19T02:51:30;14.50;99.90
30097;DHT22;16915;51.466;3.610;2023-09-19T02:53:56;14.50;99.90
30097;DHT22;16915;51.466;3.610;2023-09-19T02:56:21;14.50;99.90
30097;DHT22;16915;51.466;3.610;2023-09-19T02:58:47;14.50;99.90
30097;DHT22;16915;51.466;3.610;2023-09-19T03:01:13;14.40;99.90
30097;DHT22;16915;51.466;3.610;2023-09-19T03:03:40;14.50;99.90
30097;DHT22;16915;51.466;3.610;2023-09-19T03:06:06;14.50;99.90
30097;DHT22;16915;51.466;3.610;2023-09-19T03:08:34;14.50;99.90
30097;DHT22;16915;51.466;3.610;2023-09-19T03:11:03;14.50;99.90
30097;DHT22;16915;51.466;3.610;2023-09-19T03:13:31;14.50;99.90
30097;DHT22;16915;51.466;3.610;2023-09-19T03:15:57;14.40;99.90
30097;DHT22;16915;51.466;3.610;2023-09-19T03:18:24;14.40;99.90
30097;DHT22;16915;51.466;3.610;2023-09-19T03:20:58;14.40;99.90
30097;DHT22;16915;51.466;3.610;2023-09-19T03:23:26;14.40;99.90
30097;DHT22;16915;51.466;3.610;2023-09-19T03:25:52;14.50;99.90
30097;DHT22;16915;51.466;3.610;2023-09-19T03:28:18;14.50;99.90
30097;DHT22;16915;51.466;3.610;2023-09-19T03:30:45;14.40;99.90
30097;DHT22;16915;51.466;3.610;2023-09-19T03:33:11;14.40;99.90
30097;DHT22;16915;51.466;3.610;2023-09-19T03:35:38;14.40;99.90
30097;DHT22;16915;51.466;3.610;2023-09-19T03:38:05;14.40;99.90
30097;DHT22;16915;51.466;3.610;2023-09-19T03:40:31;14.40;99.90
30097;DHT22;16915;51.466;3.610;2023-09-19T03:42:58;14.40;99.90
30097;DHT22;16915;51.466;3.610;2023-09-19T03:45:25;14.30;99.90
30097;DHT22;16915;51.466;3.610;2023-09-19T03:47:51;14.30;99.90
30097;DHT22;16915;51.466;3.610;2023-09-19T03:50:16;14.30;99.90
30097;DHT22;16915;51.466;3.610;2023-09-19T03:52:44;14.30;99.90
30097;DHT22;16915;51.466;3.610;2023-09-19T03:55:10;14.30;99.90
30097;DHT22;16915;51.466;3.610;2023-09-19T03:57:35;14.40;99.90
30097;DHT22;16915;51.466;3.610;2023-09-19T04:00:02;14.40;99.90
30097;DHT22;16915;51.466;3.610;2023-09-19T04:02:28;14.50;99.90
30097;DHT22;16915;51.466;3.610;2023-09-19T04:04:58;14.50;99.90
30097;DHT22;16915;51.466;3.610;2023-09-19T04:07:24;14.50;99.90
30097;DHT22;16915;51.466;3.610;2023-09-19T04:09:51;14.50;99.90
30097;DHT22;16915;51.466;3.610;2023-09-19T04:12:19;14.40;99.90
30097;DHT22;16915;51.466;3.610;2023-09-19T04:14:45;14.40;99.90
30097;DHT22;16915;51.466;3.610;2023-09-19T04:17:10;14.40;99.90
30097;DHT22;16915;51.466;3.610;2023-09-19T04:19:36;14.40;99.90
30097;DHT22;16915;51.466;3.610;2023-09-19T04:22:02;14.40;99.90
30097;DHT22;16915;51.466;3.610;2023-09-19T04:24:29;14.40;99.90
30097;DHT22;16915;51.466;3.610;2023-09-19T04:26:54;14.30;99.90
30097;DHT22;16915;51.466;3.610;2023-09-19T04:29:20;14.30;99.90
30097;DHT22;16915;51.466;3.610;2023-09-19T04:31:46;14.30;99.90
30097;DHT22;16915;51.466;3.610;2023-09-19T04:34:12;14.30;99.90
30097;DHT22;16915;51.466;3.610;2023-09-19T04:36:41;14.30;99.90
30097;DHT22;16915;51.466;3.610;2023-09-19T04:39:07;14.30;99.90
30097;DHT22;16915;51.466;3.610;2023-09-19T04:41:33;14.30;99.90
30097;DHT22;16915;51.466;3.610;2023-09-19T04:43:59;14.30;99.90
30097;DHT22;16915;51.466;3.610;2023-09-19T04:46:25;14.30;99.90
30097;DHT22;16915;51.466;3.610;2023-09-19T04:48:51;14.20;99.90
30097;DHT22;16915;51.466;3.610;2023-09-19T04:51:16;14.20;99.90
30097;DHT22;16915;51.466;3.610;2023-09-19T04:53:44;14.20;99.90
30097;DHT22;16915;51.466;3.610;2023-09-19T04:56:10;14.20;99.90
30097;DHT22;16915;51.466;3.610;2023-09-19T04:58:35;14.20;99.90
30097;DHT22;16915;51.466;3.610;2023-09-19T05:01:01;14.10;99.90
30097;DHT22;16915;51.466;3.610;2023-09-19T05:03:27;14.10;99.90
30097;DHT22;16915;51.466;3.610;2023-09-19T05:05:53;14.20;99.90
30097;DHT22;16915;51.466;3.610;2023-09-19T05:08:18;14.20;99.90
30097;DHT22;16915;51.466;3.610;2023-09-19T05:10:44;14.20;99.90
30097;DHT22;16915;51.466;3.610;2023-09-19T05:13:10;14.20;99.90
30097;DHT22;16915;51.466;3.610;2023-09-19T05:15:37;14.20;99.90
30097;DHT22;16915;51.466;3.610;2023-09-19T05:18:03;14.20;99.90
30097;DHT22;16915;51.466;3.610;2023-09-19T05:20:28;14.20;99.90
30097;DHT22;16915;51.466;3.610;2023-09-19T05:23:04;14.20;99.90
30097;DHT22;16915;51.466;3.610;2023-09-19T05:25:38;14.20;99.90
30097;DHT22;16915;51.466;3.610;2023-09-19T05:28:09;14.20;99.90
30097;DHT22;16915;51.466;3.610;2023-09-19T05:30:36;14.20;99.90
30097;DHT22;16915;51.466;3.610;2023-09-19T05:33:02;14.10;99.90
30097;DHT22;16915;51.466;3.610;2023-09-19T05:35:29;14.10;99.90
30097;DHT22;16915;51.466;3.610;2023-09-19T05:37:55;14.10;99.90
30097;DHT22;16915;51.466;3.610;2023-09-19T05:40:21;14.10;99.90
30097;DHT22;16915;51.466;3.610;2023-09-19T05:42:47;14.20;99.90
30097;DHT22;16915;51.466;3.610;2023-09-19T05:45:13;14.10;99.90
30097;DHT22;16915;51.466;3.610;2023-09-19T05:47:42;14.10;99.90
30097;DHT22;16915;51.466;3.610;2023-09-19T05:50:11;14.10;99.90
30097;DHT22;16915;51.466;3.610;2023-09-19T05:52:37;14.20;99.90
30097;DHT22;16915;51.466;3.610;2023-09-19T05:55:06;14.10;99.90
30097;DHT22;16915;51.466;3.610;2023-09-19T05:57:36;14.20;99.90
30097;DHT22;16915;51.466;3.610;2023-09-19T06:00:05;14.20;99.90
30097;DHT22;16915;51.466;3.610;2023-09-19T06:02:36;14.20;99.90
30097;DHT22;16915;51.466;3.610;2023-09-19T06:05:01;14.20;99.90
30097;DHT22;16915;51.466;3.610;2023-09-19T06:07:27;14.10;99.90
30097;DHT22;16915;51.466;3.610;2023-09-19T06:10:02;14.20;99.90
30097;DHT22;16915;51.466;3.610;2023-09-19T06:12:31;14.20;99.90
30097;DHT22;16915;51.466;3.610;2023-09-19T06:14:58;14.20;99.90
30097;DHT22;16915;51.466;3.610;2023-09-19T06:17:24;14.30;99.90
30097;DHT22;16915;51.466;3.610;2023-09-19T06:19:52;14.30;99.90
30097;DHT22;16915;51.466;3.610;2023-09-19T06:22:18;14.30;99.90
30097;DHT22;16915;51.466;3.610;2023-09-19T06:24:44;14.30;99.90
30097;DHT22;16915;51.466;3.610;2023-09-19T06:27:10;14.40;99.90
30097;DHT22;16915;51.466;3.610;2023-09-19T06:29:35;14.40;99.90
30097;DHT22;16915;51.466;3.610;2023-09-19T06:32:07;14.40;99.90
30097;DHT22;16915;51.466;3.610;2023-09-19T06:34:34;14.40;99.90
30097;DHT22;16915;51.466;3.610;2023-09-19T06:36:59;14.40;99.90
30097;DHT22;16915;51.466;3.610;2023-09-19T06:39:25;14.40;99.90
30097;DHT22;16915;51.466;3.610;2023-09-19T06:41:51;14.50;99.90
30097;DHT22;16915;51.466;3.610;2023-09-19T06:44:19;14.50;99.90
30097;DHT22;16915;51.466;3.610;2023-09-19T06:46:47;14.50;99.90
30097;DHT22;16915;51.466;3.610;2023-09-19T06:49:17;14.60;99.90
30097;DHT22;16915;51.466;3.610;2023-09-19T06:51:42;14.60;99.90
30097;DHT22;16915;51.466;3.610;2023-09-19T06:54:09;14.70;99.90
30097;DHT22;16915;51.466;3.610;2023-09-19T06:56:35;14.70;99.90
30097;DHT22;16915;51.466;3.610;2023-09-19T06:59:00;14.70;99.90
30097;DHT22;16915;51.466;3.610;2023-09-19T07:01:28;14.80;99.90
30097;DHT22;16915;51.466;3.610;2023-09-19T07:03:53;14.80;99.90
30097;DHT22;16915;51.466;3.610;2023-09-19T07:06:19;14.90;99.90
30097;DHT22;16915;51.466;3.610;2023-09-19T07:08:45;14.90;99.90
30097;DHT22;16915;51.466;3.610;2023-09-19T07:11:11;15.00;99.90
30097;DHT22;16915;51.466;3.610;2023-09-19T07:13:37;15.00;99.90
30097;DHT22;16915;51.466;3.610;2023-09-19T07:16:03;15.10;99.90
30097;DHT22;16915;51.466;3.610;2023-09-19T07:18:29;15.10;99.90
30097;DHT22;16915;51.466;3.610;2023-09-19T07:20:58;15.10;99.90
30097;DHT22;16915;51.466;3.610;2023-09-19T07:23:30;15.20;99.90
30097;DHT22;16915;51.466;3.610;2023-09-19T07:26:00;15.20;99.90
30097;DHT22;16915;51.466;3.610;2023-09-19T07:28:26;15.20;99.90
30097;DHT22;16915;51.466;3.610;2023-09-19T07:30:52;15.20;99.90
30097;DHT22;16915;51.466;3.610;2023-09-19T07:33:18;15.20;99.90
30097;DHT22;16915;51.466;3.610;2023-09-19T07:35:47;15.30;99.90
30097;DHT22;16915;51.466;3.610;2023-09-19T07:38:12;15.20;99.90
30097;DHT22;16915;51.466;3.610;2023-09-19T07:40:38;15.30;99.90
30097;DHT22;16915;51.466;3.610;2023-09-19T07:43:04;15.30;99.90
30097;DHT22;16915;51.466;3.610;2023-09-19T07:45:31;15.40;99.90
30097;DHT22;16915;51.466;3.610;2023-09-19T07:47:57;15.40;99.90
30097;DHT22;16915;51.466;3.610;2023-09-19T07:50:23;15.40;99.90
30097;DHT22;16915;51.466;3.610;2023-09-19T07:52:49;15.40;99.90
30097;DHT22;16915;51.466;3.610;2023-09-19T07:55:19;15.50;99.90
30097;DHT22;16915;51.466;3.610;2023-09-19T07:57:48;15.50;99.90
30097;DHT22;16915;51.466;3.610;2023-09-19T08:00:14;15.60;99.90
30097;DHT22;16915;51.466;3.610;2023-09-19T08:02:41;15.70;99.90
30097;DHT22;16915;51.466;3.610;2023-09-19T08:05:08;15.70;99.90
30097;DHT22;16915;51.466;3.610;2023-09-19T08:07:41;15.80;99.90
30097;DHT22;16915;51.466;3.610;2023-09-19T08:10:08;15.80;99.90
30097;DHT22;16915;51.466;3.610;2023-09-19T08:12:34;15.80;99.90
30097;DHT22;16915;51.466;3.610;2023-09-19T08:15:03;15.90;99.90
30097;DHT22;16915;51.466;3.610;2023-09-19T08:17:33;15.90;99.90
30097;DHT22;16915;51.466;3.610;2023-09-19T08:19:59;16.00;99.90
30097;DHT22;16915;51.466;3.610;2023-09-19T08:22:25;16.10;99.90
30097;DHT22;16915;51.466;3.610;2023-09-19T08:24:52;16.20;99.90
30097;DHT22;16915;51.466;3.610;2023-09-19T08:27:18;16.30;99.90
30097;DHT22;16915;51.466;3.610;2023-09-19T08:29:45;16.40;99.90
30097;DHT22;16915;51.466;3.610;2023-09-19T08:32:11;16.60;99.90
30097;DHT22;16915;51.466;3.610;2023-09-19T08:34:37;16.60;99.90
30097;DHT22;16915;51.466;3.610;2023-09-19T08:37:04;16.60;99.90
30097;DHT22;16915;51.466;3.610;2023-09-19T08:39:30;16.70;99.90
30097;DHT22;16915;51.466;3.610;2023-09-19T08:42:00;16.70;99.90
30097;DHT22;16915;51.466;3.610;2023-09-19T08:44:27;16.60;99.90
30097;DHT22;16915;51.466;3.610;2023-09-19T08:47:06;16.60;99.90
30097;DHT22;16915;51.466;3.610;2023-09-19T08:49:41;16.50;99.90
30097;DHT22;16915;51.466;3.610;2023-09-19T08:52:35;16.50;99.90
30097;DHT22;16915;51.466;3.610;2023-09-19T08:55:03;16.50;99.90
30097;DHT22;16915;51.466;3.610;2023-09-19T08:57:36;16.50;99.90
30097;DHT22;16915;51.466;3.610;2023-09-19T09:00:07;16.70;99.90
30097;DHT22;16915;51.466;3.610;2023-09-19T09:02:38;16.80;99.90
30097;DHT22;16915;51.466;3.610;2023-09-19T09:05:10;17.00;99.90
30097;DHT22;16915;51.466;3.610;2023-09-19T09:07:37;17.10;99.90
30097;DHT22;16915;51.466;3.610;2023-09-19T09:10:03;17.20;99.90
30097;DHT22;16915;51.466;3.610;2023-09-19T09:12:30;17.20;99.90
30097;DHT22;16915;51.466;3.610;2023-09-19T09:14:56;17.40;99.90
30097;DHT22;16915;51.466;3.610;2023-09-19T09:17:23;17.50;99.90
30097;DHT22;16915;51.466;3.610;2023-09-19T09:19:52;17.60;99.90
30097;DHT22;16915;51.466;3.610;2023-09-19T09:22:18;17.60;99.90
30097;DHT22;16915;51.466;3.610;2023-09-19T09:24:53;17.70;99.90
30097;DHT22;16915;51.466;3.610;2023-09-19T09:27:20;17.90;99.90
30097;DHT22;16915;51.466;3.610;2023-09-19T09:29:50;18.00;99.90
30097;DHT22;16915;51.466;3.610;2023-09-19T09:32:34;18.00;99.90
30097;DHT22;16915;51.466;3.610;2023-09-19T09:35:06;18.30;99.90
30097;DHT22;16915;51.466;3.610;2023-09-19T09:37:35;18.30;99.90
30097;DHT22;16915;51.466;3.610;2023-09-19T09:40:04;18.40;99.90
30097;DHT22;16915;51.466;3.610;2023-09-19T09:42:42;18.40;99.90
30097;DHT22;16915;51.466;3.610;2023-09-19T09:45:22;18.40;99.90
30097;DHT22;16915;51.466;3.610;2023-09-19T09:48:02;18.50;99.90
30097;DHT22;16915;51.466;3.610;2023-09-19T09:50:47;18.50;99.90
30097;DHT22;16915;51.466;3.610;2023-09-19T09:53:23;18.60;99.90
30097;DHT22;16915;51.466;3.610;2023-09-19T09:56:06;18.70;99.90
30097;DHT22;16915;51.466;3.610;2023-09-19T09:58:52;18.70;99.90
30097;DHT22;16915;51.466;3.610;2023-09-19T10:01:24;18.70;99.90
30097;DHT22;16915;51.466;3.610;2023-09-19T10:03:57;18.80;99.90
30097;DHT22;16915;51.466;3.610;2023-09-19T10:06:23;18.60;99.90
30097;DHT22;16915;51.466;3.610;2023-09-19T10:11:27;18.70;99.90
30097;DHT22;16915;51.466;3.610;2023-09-19T10:13:56;18.90;99.90
30097;DHT22;16915;51.466;3.610;2023-09-19T10:16:23;18.70;99.90
30097;DHT22;16915;51.466;3.610;2023-09-19T10:18:51;18.70;99.90
30097;DHT22;16915;51.466;3.610;2023-09-19T10:21:19;18.70;99.90
30097;DHT22;16915;51.466;3.610;2023-09-19T10:23:49;18.70;99.90
30097;DHT22;16915;51.466;3.610;2023-09-19T10:26:17;18.80;99.90
30097;DHT22;16915;51.466;3.610;2023-09-19T10:28:46;18.80;99.90
30097;DHT22;16915;51.466;3.610;2023-09-19T10:31:19;19.10;99.90
30097;DHT22;16915;51.466;3.610;2023-09-19T10:33:45;19.20;99.90
30097;DHT22;16915;51.466;3.610;2023-09-19T10:36:14;19.30;99.90
30097;DHT22;16915;51.466;3.610;2023-09-19T10:38:43;19.50;99.90
30097;DHT22;16915;51.466;3.610;2023-09-19T10:41:14;19.80;99.90
30097;DHT22;16915;51.466;3.610;2023-09-19T10:43:43;19.90;99.90
30097;DHT22;16915;51.466;3.610;2023-09-19T10:46:11;19.80;99.90
30097;DHT22;16915;51.466;3.610;2023-09-19T10:48:39;19.60;99.90
30097;DHT22;16915;51.466;3.610;2023-09-19T10:51:15;19.40;99.90
30097;DHT22;16915;51.466;3.610;2023-09-19T10:53:52;19.40;99.90
30097;DHT22;16915;51.466;3.610;2023-09-19T10:56:24;19.40;99.90
30097;DHT22;16915;51.466;3.610;2023-09-19T10:59:05;19.40;99.90
30097;DHT22;16915;51.466;3.610;2023-09-19T11:01:51;19.40;99.90
30097;DHT22;16915;51.466;3.610;2023-09-19T11:07:11;19.30;99.90
30097;DHT22;16915;51.466;3.610;2023-09-19T11:09:56;19.10;99.90
30097;DHT22;16915;51.466;3.610;2023-09-19T11:15:07;18.90;99.90
30097;DHT22;16915;51.466;3.610;2023-09-19T11:17:40;19.00;99.90
30097;DHT22;16915;51.466;3.610;2023-09-19T11:30:34;18.80;99.90
30097;DHT22;16915;51.466;3.610;2023-09-19T11:36:09;18.40;99.90
30097;DHT22;16915;51.466;3.610;2023-09-19T11:49:13;18.90;99.90
30097;DHT22;16915;51.466;3.610;2023-09-19T11:51:45;18.70;99.90
30097;DHT22;16915;51.466;3.610;2023-09-19T11:54:13;18.60;99.90
30097;DHT22;16915;51.466;3.610;2023-09-19T11:56:49;18.50;99.90
30097;DHT22;16915;51.466;3.610;2023-09-19T11:59:23;18.40;99.90
30097;DHT22;16915;51.466;3.610;2023-09-19T12:01:54;18.50;99.90
30097;DHT22;16915;51.466;3.610;2023-09-19T12:04:37;18.90;99.90
30097;DHT22;16915;51.466;3.610;2023-09-19T12:07:04;19.40;99.90
30097;DHT22;16915;51.466;3.610;2023-09-19T12:09:31;20.40;99.90
30097;DHT22;16915;51.466;3.610;2023-09-19T12:11:57;21.20;99.90
30097;DHT22;16915;51.466;3.610;2023-09-19T12:14:24;21.70;99.90
30097;DHT22;16915;51.466;3.610;2023-09-19T12:16:54;21.80;99.90
30097;DHT22;16915;51.466;3.610;2023-09-19T12:19:21;21.40;99.90
30097;DHT22;16915;51.466;3.610;2023-09-19T12:22:01;20.80;99.90
30097;DHT22;16915;51.466;3.610;2023-09-19T12:24:30;20.60;99.90
30097;DHT22;16915;51.466;3.610;2023-09-19T12:27:04;20.60;99.90
30097;DHT22;16915;51.466;3.610;2023-09-19T12:29:32;20.80;99.90
30097;DHT22;16915;51.466;3.610;2023-09-19T12:31:59;21.40;99.90
30097;DHT22;16915;51.466;3.610;2023-09-19T12:34:30;21.50;99.90
30097;DHT22;16915;51.466;3.610;2023-09-19T12:37:14;21.30;99.90
30097;DHT22;16915;51.466;3.610;2023-09-19T12:39:50;21.00;99.90
30097;DHT22;16915;51.466;3.610;2023-09-19T12:42:26;20.60;99.90
30097;DHT22;16915;51.466;3.610;2023-09-19T12:44:58;20.40;99.90
30097;DHT22;16915;51.466;3.610;2023-09-19T12:47:27;20.10;99.90
30097;DHT22;16915;51.466;3.610;2023-09-19T12:50:14;19.90;99.90
30097;DHT22;16915;51.466;3.610;2023-09-19T12:52:48;19.70;99.90
30097;DHT22;16915;51.466;3.610;2023-09-19T12:55:28;19.60;99.90
30097;DHT22;16915;51.466;3.610;2023-09-19T12:58:01;19.50;99.90
30097;DHT22;16915;51.466;3.610;2023-09-19T13:00:42;19.40;99.90
30097;DHT22;16915;51.466;3.610;2023-09-19T13:03:28;19.50;99.90
30097;DHT22;16915;51.466;3.610;2023-09-19T13:06:01;19.60;99.90
30097;DHT22;16915;51.466;3.610;2023-09-19T13:08:28;19.60;99.90
30097;DHT22;16915;51.466;3.610;2023-09-19T13:11:16;19.60;99.90
30097;DHT22;16915;51.466;3.610;2023-09-19T13:13:51;19.50;99.90
30097;DHT22;16915;51.466;3.610;2023-09-19T13:16:33;19.40;99.90
30097;DHT22;16915;51.466;3.610;2023-09-19T13:18:59;19.40;99.90
30097;DHT22;16915;51.466;3.610;2023-09-19T13:21:34;19.30;99.90
30097;DHT22;16915;51.466;3.610;2023-09-19T13:24:26;19.20;99.90
30097;DHT22;16915;51.466;3.610;2023-09-19T13:26:56;19.20;99.90
30097;DHT22;16915;51.466;3.610;2023-09-19T13:29:22;19.20;99.90
30097;DHT22;16915;51.466;3.610;2023-09-19T13:31:52;19.20;99.90
30097;DHT22;16915;51.466;3.610;2023-09-19T13:34:24;19.20;99.90
30097;DHT22;16915;51.466;3.610;2023-09-19T13:36:50;19.50;99.90
30097;DHT22;16915;51.466;3.610;2023-09-19T13:39:16;20.20;99.90
30097;DHT22;16915;51.466;3.610;2023-09-19T13:41:44;20.60;99.90
30097;DHT22;16915;51.466;3.610;2023-09-19T13:44:11;20.50;99.90
30097;DHT22;16915;51.466;3.610;2023-09-19T13:46:37;20.20;99.90
30097;DHT22;16915;51.466;3.610;2023-09-19T13:49:03;20.00;99.90
30097;DHT22;16915;51.466;3.610;2023-09-19T13:51:31;19.90;99.90
30097;DHT22;16915;51.466;3.610;2023-09-19T13:53:57;19.90;99.90
30097;DHT22;16915;51.466;3.610;2023-09-19T13:56:25;19.90;99.90
30097;DHT22;16915;51.466;3.610;2023-09-19T13:58:53;19.90;99.90
30097;DHT22;16915;51.466;3.610;2023-09-19T14:01:22;19.90;99.90
30097;DHT22;16915;51.466;3.610;2023-09-19T14:03:48;20.00;99.90
30097;DHT22;16915;51.466;3.610;2023-09-19T14:06:15;19.80;99.90
30097;DHT22;16915;51.466;3.610;2023-09-19T14:08:41;19.70;99.90
30097;DHT22;16915;51.466;3.610;2023-09-19T14:11:07;19.60;99.90
30097;DHT22;16915;51.466;3.610;2023-09-19T14:13:33;19.60;99.90
30097;DHT22;16915;51.466;3.610;2023-09-19T14:16:06;19.60;99.90
30097;DHT22;16915;51.466;3.610;2023-09-19T14:18:34;19.60;99.90
30097;DHT22;16915;51.466;3.610;2023-09-19T14:21:06;19.50;99.90
30097;DHT22;16915;51.466;3.610;2023-09-19T14:23:37;19.50;99.90
30097;DHT22;16915;51.466;3.610;2023-09-19T14:26:03;19.40;99.90
30097;DHT22;16915;51.466;3.610;2023-09-19T14:28:28;19.40;99.90
30097;DHT22;16915;51.466;3.610;2023-09-19T14:30:55;19.40;99.90
30097;DHT22;16915;51.466;3.610;2023-09-19T14:33:21;19.30;99.90
30097;DHT22;16915;51.466;3.610;2023-09-19T14:35:46;19.20;99.90
30097;DHT22;16915;51.466;3.610;2023-09-19T14:38:12;19.10;99.90
30097;DHT22;16915;51.466;3.610;2023-09-19T14:40:37;19.10;99.90
30097;DHT22;16915;51.466;3.610;2023-09-19T14:43:04;19.00;99.90
30097;DHT22;16915;51.466;3.610;2023-09-19T14:45:30;19.00;99.90
30097;DHT22;16915;51.466;3.610;2023-09-19T14:47:56;18.90;99.90
30097;DHT22;16915;51.466;3.610;2023-09-19T14:50:22;18.90;99.90
30097;DHT22;16915;51.466;3.610;2023-09-19T14:52:48;18.90;99.90
30097;DHT22;16915;51.466;3.610;2023-09-19T14:55:17;18.90;99.90
30097;DHT22;16915;51.466;3.610;2023-09-19T14:57:49;18.80;99.90
30097;DHT22;16915;51.466;3.610;2023-09-19T15:00:16;18.70;99.90
30097;DHT22;16915;51.466;3.610;2023-09-19T15:02:42;18.60;99.90
30097;DHT22;16915;51.466;3.610;2023-09-19T15:05:10;18.50;99.90
30097;DHT22;16915;51.466;3.610;2023-09-19T15:07:36;18.40;99.90
30097;DHT22;16915;51.466;3.610;2023-09-19T15:10:05;18.40;99.90
30097;DHT22;16915;51.466;3.610;2023-09-19T15:12:32;18.50;99.90
30097;DHT22;16915;51.466;3.610;2023-09-19T15:14:58;18.50;99.90
30097;DHT22;16915;51.466;3.610;2023-09-19T15:17:24;18.60;99.90
30097;DHT22;16915;51.466;3.610;2023-09-19T15:19:50;18.50;99.90
30097;DHT22;16915;51.466;3.610;2023-09-19T15:22:16;18.50;99.90
30097;DHT22;16915;51.466;3.610;2023-09-19T15:24:42;18.40;99.90
30097;DHT22;16915;51.466;3.610;2023-09-19T15:27:07;18.40;99.90
30097;DHT22;16915;51.466;3.610;2023-09-19T15:29:33;18.20;99.90
30097;DHT22;16915;51.466;3.610;2023-09-19T15:31:59;18.20;99.90
30097;DHT22;16915;51.466;3.610;2023-09-19T15:34:27;18.20;99.90
30097;DHT22;16915;51.466;3.610;2023-09-19T15:36:54;18.20;99.90
30097;DHT22;16915;51.466;3.610;2023-09-19T15:39:20;18.30;99.90
30097;DHT22;16915;51.466;3.610;2023-09-19T15:41:48;18.30;99.90
30097;DHT22;16915;51.466;3.610;2023-09-19T15:44:20;18.40;99.90
30097;DHT22;16915;51.466;3.610;2023-09-19T15:46:46;18.50;99.90
30097;DHT22;16915;51.466;3.610;2023-09-19T15:49:11;18.50;99.90
30097;DHT22;16915;51.466;3.610;2023-09-19T15:51:38;18.60;99.90
30097;DHT22;16915;51.466;3.610;2023-09-19T15:54:11;18.50;99.90
30097;DHT22;16915;51.466;3.610;2023-09-19T15:56:41;18.50;99.90
30097;DHT22;16915;51.466;3.610;2023-09-19T15:59:07;18.50;99.90
30097;DHT22;16915;51.466;3.610;2023-09-19T16:01:33;18.40;99.90
30097;DHT22;16915;51.466;3.610;2023-09-19T16:03:59;18.40;99.90
30097;DHT22;16915;51.466;3.610;2023-09-19T16:06:26;18.40;99.90
30097;DHT22;16915;51.466;3.610;2023-09-19T16:08:57;18.40;99.90
30097;DHT22;16915;51.466;3.610;2023-09-19T16:11:24;18.40;99.90
30097;DHT22;16915;51.466;3.610;2023-09-19T16:13:50;18.40;99.90
30097;DHT22;16915;51.466;3.610;2023-09-19T16:16:17;18.30;99.90
30097;DHT22;16915;51.466;3.610;2023-09-19T16:18:55;18.30;99.90
30097;DHT22;16915;51.466;3.610;2023-09-19T16:21:23;18.20;99.90
30097;DHT22;16915;51.466;3.610;2023-09-19T16:23:50;18.10;99.90